createdAt,value
2023-02-21T00:01:05.007Z,1.33
2023-02-21T00:03:52.503Z,1.33
2023-02-21T00:06:38.044Z,1.30
2023-02-21T00:12:08.730Z,1.27
2023-02-21T00:14:57.103Z,1.30
2023-02-21T00:17:43.348Z,1.15
2023-02-21T00:20:29.274Z,1.40
2023-02-21T00:23:14.728Z,1.20
2023-02-21T00:28:45.394Z,1.15
2023-02-21T00:31:31.017Z,1.27
2023-02-21T00:34:16.363Z,1.30
2023-02-21T00:37:01.750Z,1.20
2023-02-21T00:39:47.396Z,1.30
2023-02-21T00:42:32.907Z,1.17
2023-02-21T00:48:03.280Z,1.20
2023-02-21T00:50:48.474Z,1.20
2023-02-21T00:53:33.746Z,1.15
2023-02-21T00:56:19.349Z,1.23
2023-02-21T00:59:04.608Z,1.15
2023-02-21T01:01:49.878Z,1.27
2023-02-21T01:04:35.664Z,1.23
2023-02-21T01:07:20.956Z,0.80
2023-02-21T01:10:07.021Z,0.50
2023-02-21T01:12:52.610Z,0.63
2023-02-21T01:15:37.871Z,0.40
2023-02-21T01:18:23.662Z,0.30
2023-02-21T01:21:09.122Z,0.30
2023-02-21T01:26:39.808Z,0.20
2023-02-21T01:29:25.248Z,0.20
2023-02-21T01:34:55.893Z,0.20
2023-02-21T01:40:27.619Z,0.20
2023-02-21T01:43:12.988Z,0.30
2023-02-21T01:46:10.126Z,0.20
2023-02-21T01:48:55.945Z,0.20
2023-02-21T01:51:52.064Z,0.20
2023-02-21T01:54:39.954Z,0.10
2023-02-21T01:57:27.332Z,0.10
2023-02-21T02:00:17.120Z,0.10
2023-02-21T02:03:23.280Z,0.10
2023-02-21T02:06:15.532Z,0.10
2023-02-21T02:09:01.510Z,0.13
2023-02-21T02:12:08.806Z,0.20
2023-02-21T02:14:56.961Z,0.10
2023-02-21T02:17:51.466Z,0.10
2023-02-21T02:20:43.042Z,0.20
2023-02-21T02:23:49.869Z,0.10
2023-02-21T02:27:12.396Z,0.30
2023-02-21T02:30:00.526Z,0.10
2023-02-21T02:33:01.290Z,0.13
2023-02-21T02:35:50.453Z,0.20
2023-02-21T02:38:47.285Z,0.10
2023-02-21T02:41:42.314Z,0.20
2023-02-21T02:44:21.144Z,0.17
2023-02-21T02:46:50.187Z,0.20
2023-02-21T02:49:25.347Z,0.22
2023-02-21T02:51:53.141Z,0.20
2023-02-21T02:54:20.356Z,0.30
2023-02-21T02:56:51.134Z,0.30
2023-02-21T02:59:26.532Z,0.43
2023-02-21T03:02:13.954Z,0.30
2023-02-21T03:04:59.408Z,0.50
2023-02-21T03:10:54.570Z,0.55
2023-02-21T03:13:49.799Z,0.22
2023-02-21T03:16:55.286Z,0.50
2023-02-21T03:19:31.724Z,0.50
2023-02-21T03:22:22.460Z,0.32
2023-02-21T03:24:51.523Z,0.50
2023-02-21T03:27:21.432Z,0.40
2023-02-21T03:29:49.225Z,0.40
2023-02-21T03:32:28.629Z,0.40
2023-02-21T03:34:55.680Z,0.40
2023-02-21T03:37:45.298Z,0.52
2023-02-21T03:40:18.435Z,0.30
2023-02-21T03:42:45.429Z,0.30
2023-02-21T03:45:12.478Z,0.30
2023-02-21T03:47:39.750Z,0.20
2023-02-21T03:50:07.638Z,0.20
2023-02-21T03:52:34.660Z,0.10
2023-02-21T03:55:01.621Z,0.20
2023-02-21T03:57:28.547Z,0.20
2023-02-21T03:59:55.738Z,0.10
2023-02-21T04:02:23.056Z,0.10
2023-02-21T04:04:50.239Z,0.20
2023-02-21T04:07:19.863Z,0.10
2023-02-21T04:09:48.849Z,0.13
2023-02-21T04:12:16.025Z,0.10
2023-02-21T04:14:42.895Z,0.10
2023-02-21T04:17:09.771Z,0.20
2023-02-21T04:19:36.782Z,0.10
2023-02-21T04:22:03.827Z,0.20
2023-02-21T04:24:30.705Z,0.10
2023-02-21T04:26:58.708Z,0.10
2023-02-21T04:29:25.730Z,0.10
2023-02-21T04:31:52.759Z,0.13
2023-02-21T04:34:19.832Z,0.10
2023-02-21T04:36:46.804Z,0.10
2023-02-21T04:39:14.194Z,0.20
2023-02-21T04:41:41.469Z,0.20
2023-02-21T04:44:08.369Z,0.20
2023-02-21T04:46:35.211Z,0.10
2023-02-21T04:49:02.478Z,0.20
2023-02-21T04:51:29.361Z,0.20
2023-02-21T04:53:56.730Z,0.20
2023-02-21T04:56:27.906Z,0.20
2023-02-21T04:58:55.602Z,0.10
2023-02-21T05:01:23.299Z,0.20
2023-02-21T05:03:50.364Z,0.30
2023-02-21T05:06:22.466Z,0.20
2023-02-21T05:08:50.067Z,0.20
2023-02-21T05:11:18.378Z,0.30
2023-02-21T05:13:46.178Z,0.30
2023-02-21T05:16:13.985Z,0.20
2023-02-21T05:18:46.619Z,0.20
2023-02-21T05:21:16.405Z,0.20
2023-02-21T05:23:56.225Z,0.30
2023-02-21T05:26:27.907Z,0.20
2023-02-21T05:28:54.879Z,0.25
2023-02-21T05:31:21.955Z,0.30
2023-02-21T05:33:49.284Z,0.20
2023-02-21T05:36:17.926Z,0.30
2023-02-21T05:38:50.485Z,0.20
2023-02-21T05:41:18.404Z,0.20
2023-02-21T05:43:47.278Z,0.20
2023-02-21T05:46:25.037Z,0.22
2023-02-21T05:48:52.373Z,0.28
2023-02-21T05:51:20.014Z,0.22
2023-02-21T05:53:47.603Z,0.20
2023-02-21T05:56:14.607Z,0.30
2023-02-21T05:58:41.461Z,0.30
2023-02-21T06:01:08.487Z,0.20
2023-02-21T06:03:35.372Z,0.20
2023-02-21T06:06:02.252Z,0.20
2023-02-21T06:08:29.537Z,0.20
2023-02-21T06:10:56.385Z,0.15
2023-02-21T06:13:23.298Z,0.25
2023-02-21T06:15:50.275Z,0.30
2023-02-21T06:18:17.931Z,0.15
2023-02-21T06:20:45.221Z,0.20
2023-02-21T06:23:12.137Z,0.20
2023-02-21T06:25:38.985Z,0.20
2023-02-21T06:28:06.028Z,0.30
2023-02-21T06:30:32.865Z,0.30
2023-02-21T06:32:59.847Z,0.10
2023-02-21T06:35:26.798Z,0.25
2023-02-21T06:37:53.709Z,0.20
2023-02-21T06:40:20.557Z,0.10
2023-02-21T06:42:47.797Z,0.22
2023-02-21T06:45:14.739Z,0.30
2023-02-21T06:47:41.633Z,0.30
2023-02-21T06:50:10.335Z,0.20
2023-02-21T06:52:37.307Z,0.20
2023-02-21T06:55:04.694Z,0.13
2023-02-21T06:57:31.494Z,0.20
2023-02-21T06:59:58.428Z,0.20
2023-02-21T07:02:25.308Z,0.28
2023-02-21T07:04:52.327Z,0.20
2023-02-21T07:07:19.462Z,0.30
2023-02-21T07:09:46.322Z,0.38
2023-02-21T07:12:13.185Z,0.30
2023-02-21T07:14:40.371Z,0.40
2023-02-21T07:17:07.212Z,0.40
2023-02-21T07:19:33.985Z,0.40
2023-02-21T07:22:00.836Z,0.32
2023-02-21T07:24:27.666Z,0.60
2023-02-21T07:26:55.418Z,0.50
2023-02-21T07:29:22.286Z,0.50
2023-02-21T07:31:49.225Z,0.30
2023-02-21T07:34:16.914Z,0.28
2023-02-21T07:36:44.537Z,0.30
2023-02-21T07:39:11.742Z,0.20
2023-02-21T07:41:38.614Z,0.40
2023-02-21T07:44:05.777Z,0.40
2023-02-21T07:46:32.980Z,0.20
2023-02-21T07:48:59.781Z,0.30
2023-02-21T07:51:31.203Z,0.40
2023-02-21T07:53:58.209Z,0.40
2023-02-21T07:56:24.980Z,0.40
2023-02-21T07:58:51.800Z,0.30
2023-02-21T08:01:22.977Z,0.40
2023-02-21T08:03:49.890Z,0.30
2023-02-21T08:06:18.336Z,0.30
2023-02-21T08:08:45.916Z,0.30
2023-02-21T08:11:13.619Z,0.30
2023-02-21T08:13:40.693Z,0.20
2023-02-21T08:16:07.794Z,0.30
2023-02-21T08:18:34.645Z,0.30
2023-02-21T08:21:01.523Z,0.40
2023-02-21T08:23:28.833Z,0.30
2023-02-21T08:25:55.825Z,0.40
2023-02-21T08:28:22.623Z,0.22
2023-02-21T08:30:49.505Z,0.20
2023-02-21T08:33:16.297Z,0.30
2023-02-21T08:35:43.575Z,0.20
2023-02-21T08:38:11.006Z,0.30
2023-02-21T08:40:37.853Z,0.20
2023-02-21T08:43:05.971Z,0.30
2023-02-21T08:45:33.293Z,0.30
2023-02-21T08:48:00.168Z,0.30
2023-02-21T08:50:28.928Z,0.30
2023-02-21T08:52:56.929Z,0.50
2023-02-21T08:55:24.035Z,0.35
2023-02-21T08:57:53.769Z,0.47
2023-02-21T09:00:24.192Z,0.30
2023-02-21T09:02:52.490Z,0.50
2023-02-21T09:05:24.834Z,0.50
2023-02-21T09:07:55.271Z,0.40
2023-02-21T09:10:22.269Z,0.40
2023-02-21T09:12:49.253Z,0.45
2023-02-21T09:15:17.051Z,0.50
2023-02-21T09:17:44.956Z,0.60
2023-02-21T09:20:17.243Z,0.70
2023-02-21T09:22:45.673Z,0.60
2023-02-21T09:25:13.817Z,0.70
2023-02-21T09:27:41.514Z,0.60
2023-02-21T09:30:16.995Z,0.70
2023-02-21T09:32:43.920Z,0.60
2023-02-21T09:35:14.083Z,0.60
2023-02-21T09:37:42.736Z,0.80
2023-02-21T09:40:37.491Z,0.70
2023-02-21T09:43:09.675Z,1.10
2023-02-21T09:45:37.984Z,0.93
2023-02-21T09:48:19.282Z,0.80
2023-02-21T09:50:54.360Z,0.82
2023-02-21T09:56:00.789Z,0.75
2023-02-21T09:58:27.670Z,1.25
2023-02-21T10:01:01.331Z,0.85
2023-02-21T10:04:05.113Z,0.90
2023-02-21T10:07:07.282Z,0.88
2023-02-21T10:10:08.200Z,1.25
2023-02-21T10:13:03.951Z,1.30
2023-02-21T10:16:05.631Z,1.30
2023-02-21T10:18:45.290Z,1.00
2023-02-21T10:21:23.333Z,1.25
2023-02-21T10:23:54.644Z,1.30
2023-02-21T10:26:28.164Z,1.23
2023-02-21T10:28:57.049Z,1.35
2023-02-21T10:31:26.789Z,1.27
2023-02-21T10:33:53.722Z,1.20
2023-02-21T10:36:23.500Z,1.40
2023-02-21T10:39:07.646Z,1.25
2023-02-21T10:41:39.628Z,1.33
2023-02-21T10:44:15.929Z,1.30
2023-02-21T10:47:00.861Z,1.52
2023-02-21T10:49:39.848Z,1.60
2023-02-21T10:52:13.967Z,1.20
2023-02-21T10:54:41.254Z,1.20
2023-02-21T10:57:12.189Z,1.20
2023-02-21T10:59:43.165Z,1.00
2023-02-21T11:02:50.249Z,1.10
2023-02-21T11:05:22.335Z,1.27
2023-02-21T11:08:02.694Z,1.10
2023-02-21T11:10:42.792Z,1.20
2023-02-21T11:13:21.705Z,1.25
2023-02-21T11:15:49.858Z,1.00
2023-02-21T11:18:24.853Z,1.38
2023-02-21T11:20:53.986Z,1.10
2023-02-21T11:23:30.701Z,1.20
2023-02-21T11:26:16.602Z,1.13
2023-02-21T11:28:45.144Z,1.27
2023-02-21T11:31:23.931Z,1.30
2023-02-21T11:34:00.982Z,1.10
2023-02-21T11:36:36.729Z,1.40
2023-02-21T11:39:07.704Z,1.10
2023-02-21T11:41:50.896Z,1.10
2023-02-21T11:44:41.153Z,1.02
2023-02-21T11:47:40.040Z,1.10
2023-02-21T11:50:12.821Z,0.95
2023-02-21T11:52:49.739Z,1.30
2023-02-21T11:55:21.896Z,1.10
2023-02-21T11:58:06.657Z,1.30
2023-02-21T12:01:13.580Z,1.10
2023-02-21T12:04:30.363Z,0.85
2023-02-21T12:10:02.459Z,0.95
2023-02-21T12:12:54.788Z,1.17
2023-02-21T12:16:01.193Z,0.90
2023-02-21T12:18:50.975Z,1.10
2023-02-21T12:21:41.711Z,1.10
2023-02-21T12:24:49.405Z,1.00
2023-02-21T12:27:25.732Z,1.00
2023-02-21T12:30:03.756Z,0.90
2023-02-21T12:33:08.152Z,0.80
2023-02-21T12:36:13.972Z,1.00
2023-02-21T12:39:12.197Z,0.70
2023-02-21T12:41:50.244Z,0.80
2023-02-21T12:44:27.213Z,0.60
2023-02-21T12:47:22.017Z,0.80
2023-02-21T12:50:02.111Z,0.50
2023-02-21T12:53:05.755Z,0.70
2023-02-21T12:56:09.326Z,0.70
2023-02-21T12:58:48.625Z,1.77
2023-02-21T13:01:32.387Z,5.93
2023-02-21T13:04:14.459Z,5.75
2023-02-21T13:07:11.799Z,6.18
2023-02-21T13:09:49.116Z,2.72
2023-02-21T13:12:22.710Z,1.20
2023-02-21T13:14:59.624Z,0.98
2023-02-21T13:17:27.577Z,0.73
2023-02-21T13:20:10.044Z,0.80
2023-02-21T13:23:40.026Z,0.90
2023-02-21T13:26:43.609Z,1.00
2023-02-21T13:29:37.468Z,0.70
2023-02-21T13:32:11.860Z,1.00
2023-02-21T13:34:47.457Z,1.10
2023-02-21T13:37:20.528Z,0.80
2023-02-21T13:40:01.548Z,1.10
2023-02-21T13:42:30.413Z,0.80
2023-02-21T13:45:21.718Z,1.02
2023-02-21T13:47:58.311Z,1.13
2023-02-21T13:50:42.025Z,0.90
2023-02-21T13:53:08.833Z,1.20
2023-02-21T13:55:37.562Z,1.10
2023-02-21T13:58:05.479Z,1.00
2023-02-21T14:00:32.312Z,1.00
2023-02-21T14:03:25.284Z,1.10
2023-02-21T14:05:52.609Z,1.30
2023-02-21T14:08:33.708Z,1.70
2023-02-21T14:11:07.062Z,1.52
2023-02-21T14:13:54.505Z,1.70
2023-02-21T14:16:47.083Z,1.88
2023-02-21T14:19:26.495Z,2.00
2023-02-21T14:22:29.235Z,2.10
2023-02-21T14:25:16.350Z,2.20
2023-02-21T14:27:43.421Z,2.60
2023-02-21T14:30:13.299Z,2.80
2023-02-21T14:32:56.649Z,2.58
2023-02-21T14:35:34.529Z,2.80
2023-02-21T14:38:21.808Z,2.50
2023-02-21T14:41:09.262Z,2.30
2023-02-21T14:44:22.634Z,2.38
2023-02-21T14:47:05.758Z,2.70
2023-02-21T14:49:54.609Z,2.78
2023-02-21T14:52:52.094Z,3.53
2023-02-21T14:56:28.462Z,4.10
2023-02-21T14:59:27.233Z,4.30
2023-02-21T15:02:42.678Z,4.22
2023-02-21T15:05:26.590Z,5.50
2023-02-21T15:08:06.405Z,6.20
2023-02-21T15:10:42.353Z,6.10
2023-02-21T15:13:25.453Z,7.07
2023-02-21T15:16:08.211Z,6.80
2023-02-21T15:19:00.559Z,7.35
2023-02-21T15:21:28.403Z,6.65
2023-02-21T15:24:13.241Z,8.65
2023-02-21T15:26:40.321Z,8.45
2023-02-21T15:29:12.376Z,8.98
2023-02-21T15:31:49.269Z,9.00
2023-02-21T15:34:20.721Z,9.70
2023-02-21T15:36:55.536Z,10.45
2023-02-21T15:39:33.673Z,12.05
2023-02-21T15:42:05.571Z,12.45
2023-02-21T15:44:40.730Z,13.70
2023-02-21T15:47:22.770Z,12.45
2023-02-21T15:50:12.055Z,13.48
2023-02-21T15:52:40.527Z,13.52
2023-02-21T15:55:19.806Z,13.75
2023-02-21T15:57:57.616Z,13.85
2023-02-21T16:00:43.394Z,11.85
2023-02-21T16:03:41.086Z,12.63
2023-02-21T16:06:32.495Z,13.52
2023-02-21T16:09:08.015Z,12.40
2023-02-21T16:12:06.267Z,13.65
2023-02-21T16:14:45.290Z,14.20
2023-02-21T16:17:25.119Z,13.80
2023-02-21T16:19:57.221Z,14.60
2023-02-21T16:22:28.542Z,13.68
2023-02-21T16:25:10.646Z,14.23
2023-02-21T16:27:49.830Z,15.65
2023-02-21T16:30:23.070Z,14.88
2023-02-21T16:32:52.884Z,15.07
2023-02-21T16:35:25.225Z,14.65
2023-02-21T16:37:56.669Z,15.23
2023-02-21T16:40:31.091Z,15.55
2023-02-21T16:42:59.219Z,15.10
2023-02-21T16:45:26.022Z,15.35
2023-02-21T16:48:07.326Z,15.90
2023-02-21T16:50:36.572Z,16.50
2023-02-21T16:53:03.937Z,17.10
2023-02-21T16:55:31.697Z,18.13
2023-02-21T16:58:03.458Z,17.55
2023-02-21T17:00:31.816Z,18.00
2023-02-21T17:02:58.787Z,16.95
2023-02-21T17:05:26.621Z,17.48
2023-02-21T17:07:55.449Z,17.20
2023-02-21T17:10:23.342Z,16.00
2023-02-21T17:12:50.214Z,16.23
2023-02-21T17:15:17.505Z,16.70
2023-02-21T17:17:52.750Z,17.05
2023-02-21T17:20:22.124Z,15.85
2023-02-21T17:22:49.652Z,16.05
2023-02-21T17:25:18.299Z,15.35
2023-02-21T17:27:46.008Z,16.58
2023-02-21T17:30:13.915Z,15.98
2023-02-21T17:32:40.775Z,15.82
2023-02-21T17:35:08.470Z,15.55
2023-02-21T17:37:35.349Z,15.68
2023-02-21T17:40:03.011Z,16.00
2023-02-21T17:42:29.796Z,14.75
2023-02-21T17:44:57.995Z,15.20
2023-02-21T17:47:24.906Z,14.70
2023-02-21T17:49:54.906Z,14.90
2023-02-21T17:52:22.343Z,14.80
2023-02-21T17:54:49.224Z,14.75
2023-02-21T17:57:16.677Z,14.25
2023-02-21T17:59:44.561Z,14.00
2023-02-21T18:02:11.926Z,14.68
2023-02-21T18:04:39.451Z,15.10
2023-02-21T18:07:07.240Z,15.00
2023-02-21T18:09:34.245Z,14.15
2023-02-21T18:12:01.403Z,15.05
2023-02-21T18:14:30.590Z,14.40
2023-02-21T18:16:58.330Z,14.23
2023-02-21T18:19:25.370Z,14.32
2023-02-21T18:21:52.262Z,15.55
2023-02-21T18:24:19.530Z,15.55
2023-02-21T18:26:46.834Z,15.00
2023-02-21T18:29:14.008Z,14.98
2023-02-21T18:31:40.929Z,16.00
2023-02-21T18:34:07.814Z,15.25
2023-02-21T18:36:35.628Z,15.40
2023-02-21T18:39:02.882Z,14.57
2023-02-21T18:41:29.734Z,14.45
2023-02-21T18:43:56.828Z,13.88
2023-02-21T18:46:24.306Z,14.95
2023-02-21T18:48:51.721Z,14.57
2023-02-21T18:51:20.459Z,14.82
2023-02-21T18:53:49.051Z,14.23
2023-02-21T18:56:22.025Z,14.35
2023-02-21T18:58:49.832Z,14.15
2023-02-21T19:01:20.924Z,15.02
2023-02-21T19:03:51.367Z,14.35
2023-02-21T19:06:21.371Z,14.18
2023-02-21T19:08:50.622Z,14.30
2023-02-21T19:11:18.340Z,14.65
2023-02-21T19:13:50.514Z,15.40
2023-02-21T19:16:19.917Z,15.13
2023-02-21T19:18:47.476Z,14.00
2023-02-21T19:21:15.019Z,14.55
2023-02-21T19:23:42.482Z,14.90
2023-02-21T19:26:09.523Z,15.43
2023-02-21T19:28:38.709Z,14.85
2023-02-21T19:31:05.692Z,15.38
2023-02-21T19:33:32.538Z,15.50
2023-02-21T19:36:01.754Z,17.58
2023-02-21T19:38:28.609Z,16.95
2023-02-21T19:40:55.435Z,17.35
2023-02-21T19:43:22.588Z,16.40
2023-02-21T19:45:49.469Z,14.48
2023-02-21T19:48:16.339Z,14.50
2023-02-21T19:50:43.184Z,15.50
2023-02-21T19:53:09.970Z,16.40
2023-02-21T19:55:37.164Z,17.23
2023-02-21T19:58:09.026Z,15.05
2023-02-21T20:00:39.026Z,14.93
2023-02-21T20:03:08.380Z,15.55
2023-02-21T20:05:37.215Z,15.85
2023-02-21T20:08:07.014Z,15.18
2023-02-21T20:10:35.101Z,15.40
2023-02-21T20:13:07.244Z,15.98
2023-02-21T20:15:37.969Z,15.88
2023-02-21T20:18:07.041Z,16.20
2023-02-21T20:20:34.981Z,16.05
2023-02-21T20:23:03.648Z,14.95
2023-02-21T20:25:30.770Z,15.52
2023-02-21T20:27:57.861Z,15.27
2023-02-21T20:30:25.116Z,16.13
2023-02-21T20:32:52.567Z,15.30
2023-02-21T20:35:20.770Z,15.65
2023-02-21T20:37:47.606Z,15.60
2023-02-21T20:40:16.112Z,14.05
2023-02-21T20:42:43.491Z,14.43
2023-02-21T20:45:11.100Z,13.98
2023-02-21T20:47:38.993Z,13.88
2023-02-21T20:50:07.640Z,13.93
2023-02-21T20:52:39.807Z,15.02
2023-02-21T20:55:09.665Z,14.00
2023-02-21T20:57:37.873Z,14.85
2023-02-21T21:00:09.408Z,14.43
2023-02-21T21:02:37.097Z,15.73
2023-02-21T21:05:09.351Z,15.07
2023-02-21T21:07:36.471Z,14.77
2023-02-21T21:10:03.606Z,15.07
2023-02-21T21:12:30.561Z,14.13
2023-02-21T21:14:57.585Z,14.88
2023-02-21T21:17:25.090Z,14.70
2023-02-21T21:19:53.534Z,14.52
2023-02-21T21:22:24.591Z,14.93
2023-02-21T21:24:52.789Z,15.63
2023-02-21T21:27:21.766Z,16.15
2023-02-21T21:29:49.534Z,15.98
2023-02-21T21:32:23.376Z,14.65
2023-02-21T21:34:57.158Z,14.80
2023-02-21T21:37:29.881Z,14.82
2023-02-21T21:39:57.312Z,14.68
2023-02-21T21:42:29.438Z,13.82
2023-02-21T21:44:57.532Z,14.32
2023-02-21T21:47:28.200Z,14.45
2023-02-21T21:49:55.499Z,13.65
2023-02-21T21:52:26.452Z,14.57
2023-02-21T21:54:53.594Z,14.45
2023-02-21T21:57:22.863Z,14.18
2023-02-21T21:59:50.826Z,14.52
2023-02-21T22:02:18.068Z,14.55
2023-02-21T22:04:45.817Z,13.38
2023-02-21T22:07:13.331Z,14.13
2023-02-21T22:09:40.630Z,14.25
2023-02-21T22:12:08.871Z,15.55
2023-02-21T22:14:36.315Z,13.82
2023-02-21T22:17:05.568Z,15.57
2023-02-21T22:19:34.882Z,13.32
2023-02-21T22:22:08.512Z,14.95
2023-02-21T22:24:35.511Z,13.57
2023-02-21T22:27:02.898Z,14.15
2023-02-21T22:29:29.758Z,13.55
2023-02-21T22:31:56.616Z,13.50
2023-02-21T22:34:23.564Z,15.55
2023-02-21T22:36:56.447Z,14.15
2023-02-21T22:39:25.306Z,13.68
2023-02-21T22:41:52.679Z,16.23
2023-02-21T22:44:19.829Z,15.40
2023-02-21T22:46:58.776Z,15.52
2023-02-21T22:49:27.782Z,14.65
2023-02-21T22:51:55.208Z,14.10
2023-02-21T22:54:22.058Z,14.00
2023-02-21T22:56:52.256Z,15.10
2023-02-21T22:59:21.500Z,14.63
2023-02-21T23:01:48.302Z,14.55
2023-02-21T23:04:26.113Z,15.38
2023-02-21T23:06:59.154Z,14.60
2023-02-21T23:09:29.070Z,16.15
2023-02-21T23:11:59.881Z,15.55
2023-02-21T23:14:31.741Z,15.52
2023-02-21T23:16:59.449Z,16.27
2023-02-21T23:19:29.295Z,15.93
2023-02-21T23:21:58.257Z,16.77
2023-02-21T23:24:25.364Z,16.08
2023-02-21T23:26:54.962Z,16.60
2023-02-21T23:29:26.975Z,16.30
2023-02-21T23:32:09.727Z,17.17
2023-02-21T23:34:40.825Z,15.77
2023-02-21T23:37:09.594Z,15.38
2023-02-21T23:39:36.569Z,17.20
2023-02-21T23:42:04.001Z,17.08
2023-02-21T23:44:36.298Z,16.67
2023-02-21T23:47:06.184Z,16.85
2023-02-21T23:49:33.066Z,17.02
2023-02-21T23:52:01.804Z,17.38
2023-02-21T23:54:29.013Z,19.00
2023-02-21T23:57:00.834Z,18.48
2023-02-21T23:59:28.734Z,16.75
